Fort Atkinson, WI

4:57 PM CDT on August 22, 2014 (GMT -0500)
Central Fort Atkinson | Change Station
CLOSE
Current Station
Personal Weather Station
Location: Fort Atkinson, WI
Elevation: 784 ft
Nearby Weather Stations

Elev 784 ft 42.93 °N, 88.83 °W | Updated 2 minutes ago

Scattered Clouds
Scattered Clouds
91.7 °F
Feels Like 107 °F
N
2.0
Wind Variable Wind from WSW
Gusts 6.0 mph

Today
High -- | Low -- °F
--% Chance of Precip.
Yesterday
High -- | Low -- °F
Precip. -- in
6:09 AM 7:46 PM
Waning Crescent, 6% visible
Pressure 29.92 in
Visibility 10.0 miles
Clouds Scattered Clouds 3800 ft
Scattered Clouds 4900 ft
Scattered Clouds 6000 ft
Heat Index 107 °F
Dew Point 78 °F
Humidity 65%
Rainfall 0.00 in
Snow Depth Not available.
UV 4 out of 12
Pollen 5.50 out of 12
Air Quality Not available.
Flu Activity Not available.
METAR KRYV 222115Z AUTO 25003KT 10SM SCT038 SCT049 SCT060 30/24 A2992 RMK AO2 T03020240

More Conditions Fewer Conditions

Pressure 29.92 in
Visibility 10.0 miles
Clouds Scattered Clouds 3800 ft
Scattered Clouds 4900 ft
Scattered Clouds 6000 ft
Heat Index 107 °F
Dew Point 78 °F
Humidity 65%
Rainfall 0.00 in
Snow Depth Not available.
UV 4 out of 12
Pollen 5.50 out of 12
Air Quality Not available.
Flu Activity Not available.
METAR KRYV 222115Z AUTO 25003KT 10SM SCT038 SCT049 SCT060 30/24 A2992 RMK AO2 T03020240

More Conditions Fewer Conditions

10-Day Weather Forecast

Almanac

Astronomy

Aug. 22, 2014 Rise Set
Actual Time 6:09 AM CDT 7:46 PM CDT
Civil Twilight 5:39 AM CDT 8:16 PM CDT
Nautical Twilight 5:02 AM CDT 8:52 PM CDT
Astronomical Twilight 4:23 AM CDT 9:31 PM CDT
Moon 3:29 AM CDT 5:56 PM CDT
Length of Visible Light 14h 37m
Length of Day
13h 37m
Tomorrow will be 2m 41s shorter.
Waning Crescent, 6% of the Moon is Illuminated
Today
Waning Crescent
Aug 25
New
Sep 2
First Quarter
Sep 8
Full
Sep 15
Last Quarter

Today's Extremes

State Highs State Lows

Community

WunderPhotos

Upload Photos

1,746,260 photos uploaded!

Nearby

Snow Depth

Station Depth Elevation
No new snow has been reported.

Earthquake Activity

City Distance Mag. Time & Date
No recent earthquake activity has been reported nearby.
Minimum magnitude displayed is 2.5.

Coastal Water Temperatures

Place Temperature
No Stations Reporting

Nearby Weather Stations